sensor_id;sensor_type;location;lat;lon;timestamp;P1;durP1;ratioP1;P2;durP2;ratioP2
317;SDS011;146;53.448;10.228;2024-01-15T00:02:38;7.85;;;3.40;;
317;SDS011;146;53.448;10.228;2024-01-15T00:05:26;9.57;;;2.60;;
317;SDS011;146;53.448;10.228;2024-01-15T00:08:13;12.27;;;3.17;;
317;SDS011;146;53.448;10.228;2024-01-15T00:11:18;4.95;;;1.80;;
317;SDS011;146;53.448;10.228;2024-01-15T00:14:07;3.80;;;2.30;;
317;SDS011;146;53.448;10.228;2024-01-15T00:16:57;5.55;;;3.17;;
317;SDS011;146;53.448;10.228;2024-01-15T00:19:44;5.38;;;3.25;;
317;SDS011;146;53.448;10.228;2024-01-15T00:22:34;7.82;;;2.13;;
317;SDS011;146;53.448;10.228;2024-01-15T00:25:26;6.20;;;2.47;;
317;SDS011;146;53.448;10.228;2024-01-15T00:28:16;6.90;;;2.47;;
317;SDS011;146;53.448;10.228;2024-01-15T00:31:16;6.97;;;3.17;;
317;SDS011;146;53.448;10.228;2024-01-15T00:34:09;7.50;;;4.05;;
317;SDS011;146;53.448;10.228;2024-01-15T00:37:08;5.38;;;2.85;;
317;SDS011;146;53.448;10.228;2024-01-15T00:40:01;5.57;;;2.47;;
317;SDS011;146;53.448;10.228;2024-01-15T00:42:49;6.30;;;2.33;;
317;SDS011;146;53.448;10.228;2024-01-15T00:45:44;6.18;;;2.75;;
317;SDS011;146;53.448;10.228;2024-01-15T00:48:36;12.32;;;3.10;;
317;SDS011;146;53.448;10.228;2024-01-15T00:51:29;7.05;;;2.50;;
317;SDS011;146;53.448;10.228;2024-01-15T00:54:18;4.70;;;2.60;;
317;SDS011;146;53.448;10.228;2024-01-15T00:57:11;4.10;;;2.00;;
317;SDS011;146;53.448;10.228;2024-01-15T00:59:59;7.30;;;2.75;;
317;SDS011;146;53.448;10.228;2024-01-15T01:02:49;7.57;;;2.90;;
317;SDS011;146;53.448;10.228;2024-01-15T01:05:37;7.20;;;2.50;;
317;SDS011;146;53.448;10.228;2024-01-15T01:08:33;6.50;;;2.83;;
317;SDS011;146;53.448;10.228;2024-01-15T01:11:27;6.25;;;2.70;;
317;SDS011;146;53.448;10.228;2024-01-15T01:14:17;6.63;;;3.83;;
317;SDS011;146;53.448;10.228;2024-01-15T01:17:04;5.15;;;2.88;;
317;SDS011;146;53.448;10.228;2024-01-15T01:19:51;7.90;;;2.10;;
317;SDS011;146;53.448;10.228;2024-01-15T01:22:45;6.85;;;2.33;;
317;SDS011;146;53.448;10.228;2024-01-15T01:25:35;8.07;;;2.80;;
317;SDS011;146;53.448;10.228;2024-01-15T01:28:31;4.90;;;2.37;;
317;SDS011;146;53.448;10.228;2024-01-15T01:31:18;8.07;;;2.77;;
317;SDS011;146;53.448;10.228;2024-01-15T01:34:09;7.60;;;3.13;;
317;SDS011;146;53.448;10.228;2024-01-15T01:40:13;3.63;;;1.90;;
317;SDS011;146;53.448;10.228;2024-01-15T01:43:06;6.55;;;2.42;;
317;SDS011;146;53.448;10.228;2024-01-15T01:45:55;8.02;;;2.20;;
317;SDS011;146;53.448;10.228;2024-01-15T01:48:43;5.68;;;2.22;;
317;SDS011;146;53.448;10.228;2024-01-15T01:51:34;4.10;;;3.40;;
317;SDS011;146;53.448;10.228;2024-01-15T01:54:29;4.00;;;2.40;;
317;SDS011;146;53.448;10.228;2024-01-15T01:57:19;7.90;;;2.10;;
317;SDS011;146;53.448;10.228;2024-01-15T02:00:14;4.87;;;1.80;;
317;SDS011;146;53.448;10.228;2024-01-15T02:03:02;3.80;;;2.28;;
317;SDS011;146;53.448;10.228;2024-01-15T02:05:52;4.43;;;2.03;;
317;SDS011;146;53.448;10.228;2024-01-15T02:08:46;6.40;;;2.33;;
317;SDS011;146;53.448;10.228;2024-01-15T02:11:39;5.10;;;1.98;;
317;SDS011;146;53.448;10.228;2024-01-15T02:14:40;10.48;;;2.30;;
317;SDS011;146;53.448;10.228;2024-01-15T02:17:30;4.13;;;1.63;;
317;SDS011;146;53.448;10.228;2024-01-15T02:20:25;4.55;;;1.92;;
317;SDS011;146;53.448;10.228;2024-01-15T02:23:14;3.77;;;1.50;;
317;SDS011;146;53.448;10.228;2024-01-15T02:26:15;5.95;;;2.00;;
317;SDS011;146;53.448;10.228;2024-01-15T02:29:12;3.30;;;1.90;;
317;SDS011;146;53.448;10.228;2024-01-15T02:32:06;2.92;;;1.23;;
317;SDS011;146;53.448;10.228;2024-01-15T02:34:57;1.03;;;0.97;;
317;SDS011;146;53.448;10.228;2024-01-15T02:37:44;2.85;;;1.20;;
317;SDS011;146;53.448;10.228;2024-01-15T02:40:43;3.13;;;2.30;;
317;SDS011;146;53.448;10.228;2024-01-15T02:43:37;4.13;;;1.53;;
317;SDS011;146;53.448;10.228;2024-01-15T02:46:24;4.93;;;1.83;;
317;SDS011;146;53.448;10.228;2024-01-15T02:49:11;2.75;;;1.80;;
317;SDS011;146;53.448;10.228;2024-01-15T02:52:01;5.40;;;1.67;;
317;SDS011;146;53.448;10.228;2024-01-15T02:54:51;5.13;;;2.00;;
317;SDS011;146;53.448;10.228;2024-01-15T02:57:40;4.85;;;2.58;;
317;SDS011;146;53.448;10.228;2024-01-15T03:00:46;4.50;;;1.90;;
317;SDS011;146;53.448;10.228;2024-01-15T03:03:36;5.70;;;1.70;;
317;SDS011;146;53.448;10.228;2024-01-15T03:06:25;3.50;;;2.00;;
317;SDS011;146;53.448;10.228;2024-01-15T03:09:22;4.37;;;1.60;;
317;SDS011;146;53.448;10.228;2024-01-15T03:12:20;7.93;;;2.20;;
317;SDS011;146;53.448;10.228;2024-01-15T03:15:11;3.90;;;1.70;;
317;SDS011;146;53.448;10.228;2024-01-15T03:17:59;5.30;;;1.50;;
317;SDS011;146;53.448;10.228;2024-01-15T03:20:49;3.87;;;1.40;;
317;SDS011;146;53.448;10.228;2024-01-15T03:23:46;5.40;;;1.90;;
317;SDS011;146;53.448;10.228;2024-01-15T03:26:33;4.70;;;1.50;;
317;SDS011;146;53.448;10.228;2024-01-15T03:29:23;1.47;;;1.33;;
317;SDS011;146;53.448;10.228;2024-01-15T03:32:11;3.67;;;1.30;;
317;SDS011;146;53.448;10.228;2024-01-15T03:35:05;4.53;;;1.45;;
317;SDS011;146;53.448;10.228;2024-01-15T03:38:02;7.30;;;2.03;;
317;SDS011;146;53.448;10.228;2024-01-15T03:40:49;5.57;;;1.67;;
317;SDS011;146;53.448;10.228;2024-01-15T03:43:36;5.28;;;1.65;;
317;SDS011;146;53.448;10.228;2024-01-15T03:46:23;5.60;;;1.97;;
317;SDS011;146;53.448;10.228;2024-01-15T03:49:12;8.70;;;2.70;;
317;SDS011;146;53.448;10.228;2024-01-15T03:52:02;6.97;;;3.47;;
317;SDS011;146;53.448;10.228;2024-01-15T03:54:52;7.30;;;2.43;;
317;SDS011;146;53.448;10.228;2024-01-15T03:57:59;3.93;;;2.30;;
317;SDS011;146;53.448;10.228;2024-01-15T04:00:49;4.22;;;2.70;;
317;SDS011;146;53.448;10.228;2024-01-15T04:03:36;5.57;;;2.53;;
317;SDS011;146;53.448;10.228;2024-01-15T04:06:24;8.90;;;2.80;;
317;SDS011;146;53.448;10.228;2024-01-15T04:09:14;5.30;;;2.50;;
317;SDS011;146;53.448;10.228;2024-01-15T04:12:07;7.05;;;2.70;;
317;SDS011;146;53.448;10.228;2024-01-15T04:14:58;9.02;;;2.47;;
317;SDS011;146;53.448;10.228;2024-01-15T04:17:51;6.13;;;2.70;;
317;SDS011;146;53.448;10.228;2024-01-15T04:20:41;9.00;;;3.10;;
317;SDS011;146;53.448;10.228;2024-01-15T04:23:40;11.97;;;2.63;;
317;SDS011;146;53.448;10.228;2024-01-15T04:26:40;11.23;;;3.53;;
317;SDS011;146;53.448;10.228;2024-01-15T04:29:39;9.05;;;2.88;;
317;SDS011;146;53.448;10.228;2024-01-15T04:32:26;6.10;;;3.17;;
317;SDS011;146;53.448;10.228;2024-01-15T04:35:13;11.73;;;3.90;;
317;SDS011;146;53.448;10.228;2024-01-15T04:38:00;6.73;;;3.00;;
317;SDS011;146;53.448;10.228;2024-01-15T04:40:49;9.43;;;3.80;;
317;SDS011;146;53.448;10.228;2024-01-15T04:43:36;9.98;;;3.40;;
317;SDS011;146;53.448;10.228;2024-01-15T04:46:23;7.75;;;3.85;;
317;SDS011;146;53.448;10.228;2024-01-15T04:49:11;5.72;;;3.60;;
317;SDS011;146;53.448;10.228;2024-01-15T04:52:12;15.63;;;3.83;;
317;SDS011;146;53.448;10.228;2024-01-15T04:54:59;12.07;;;3.13;;
317;SDS011;146;53.448;10.228;2024-01-15T04:57:47;10.63;;;3.30;;
317;SDS011;146;53.448;10.228;2024-01-15T05:00:34;11.40;;;3.83;;
317;SDS011;146;53.448;10.228;2024-01-15T05:03:22;13.50;;;4.10;;
317;SDS011;146;53.448;10.228;2024-01-15T05:06:09;10.37;;;3.50;;
317;SDS011;146;53.448;10.228;2024-01-15T05:08:56;7.90;;;3.20;;
317;SDS011;146;53.448;10.228;2024-01-15T05:11:43;9.43;;;2.60;;
317;SDS011;146;53.448;10.228;2024-01-15T05:14:32;10.30;;;3.00;;
317;SDS011;146;53.448;10.228;2024-01-15T05:17:19;10.80;;;2.83;;
317;SDS011;146;53.448;10.228;2024-01-15T05:20:06;11.60;;;4.40;;
317;SDS011;146;53.448;10.228;2024-01-15T05:22:55;11.60;;;3.53;;
317;SDS011;146;53.448;10.228;2024-01-15T05:25:45;8.03;;;3.10;;
317;SDS011;146;53.448;10.228;2024-01-15T05:28:32;12.10;;;3.60;;
317;SDS011;146;53.448;10.228;2024-01-15T05:31:26;8.30;;;3.50;;
317;SDS011;146;53.448;10.228;2024-01-15T05:34:19;9.07;;;3.45;;
317;SDS011;146;53.448;10.228;2024-01-15T05:37:06;10.00;;;3.00;;
317;SDS011;146;53.448;10.228;2024-01-15T05:39:53;8.70;;;3.47;;
317;SDS011;146;53.448;10.228;2024-01-15T05:42:41;11.43;;;3.85;;
317;SDS011;146;53.448;10.228;2024-01-15T05:45:29;11.33;;;3.30;;
317;SDS011;146;53.448;10.228;2024-01-15T05:48:23;9.80;;;2.90;;
317;SDS011;146;53.448;10.228;2024-01-15T05:51:10;9.53;;;3.60;;
317;SDS011;146;53.448;10.228;2024-01-15T05:54:08;9.40;;;3.30;;
317;SDS011;146;53.448;10.228;2024-01-15T05:57:06;9.40;;;2.90;;
317;SDS011;146;53.448;10.228;2024-01-15T05:59:53;12.10;;;3.73;;
317;SDS011;146;53.448;10.228;2024-01-15T06:02:44;11.57;;;3.53;;
317;SDS011;146;53.448;10.228;2024-01-15T06:05:32;7.40;;;3.23;;
317;SDS011;146;53.448;10.228;2024-01-15T06:08:19;11.30;;;4.30;;
317;SDS011;146;53.448;10.228;2024-01-15T06:11:07;8.63;;;2.93;;
317;SDS011;146;53.448;10.228;2024-01-15T06:14:04;9.70;;;3.70;;
317;SDS011;146;53.448;10.228;2024-01-15T06:16:55;10.50;;;3.03;;
317;SDS011;146;53.448;10.228;2024-01-15T06:19:45;8.35;;;3.50;;
317;SDS011;146;53.448;10.228;2024-01-15T06:22:34;14.23;;;4.63;;
317;SDS011;146;53.448;10.228;2024-01-15T06:25:21;10.98;;;3.08;;
317;SDS011;146;53.448;10.228;2024-01-15T06:28:09;8.73;;;3.47;;
317;SDS011;146;53.448;10.228;2024-01-15T06:30:56;8.15;;;3.38;;
317;SDS011;146;53.448;10.228;2024-01-15T06:33:50;8.10;;;2.53;;
317;SDS011;146;53.448;10.228;2024-01-15T06:36:40;7.60;;;2.60;;
317;SDS011;146;53.448;10.228;2024-01-15T06:39:28;10.13;;;2.90;;
317;SDS011;146;53.448;10.228;2024-01-15T06:42:18;11.70;;;3.37;;
317;SDS011;146;53.448;10.228;2024-01-15T06:45:10;10.57;;;2.70;;
317;SDS011;146;53.448;10.228;2024-01-15T06:48:03;6.60;;;3.22;;
317;SDS011;146;53.448;10.228;2024-01-15T06:50:56;12.32;;;3.10;;
317;SDS011;146;53.448;10.228;2024-01-15T06:53:43;5.93;;;3.10;;
317;SDS011;146;53.448;10.228;2024-01-15T06:56:35;5.87;;;2.67;;
317;SDS011;146;53.448;10.228;2024-01-15T06:59:25;6.75;;;2.45;;
317;SDS011;146;53.448;10.228;2024-01-15T07:02:12;6.80;;;2.90;;
317;SDS011;146;53.448;10.228;2024-01-15T07:05:05;6.30;;;2.80;;
317;SDS011;146;53.448;10.228;2024-01-15T07:07:53;4.70;;;2.10;;
317;SDS011;146;53.448;10.228;2024-01-15T07:13:58;7.45;;;2.47;;
317;SDS011;146;53.448;10.228;2024-01-15T07:16:54;7.10;;;3.10;;
317;SDS011;146;53.448;10.228;2024-01-15T07:19:43;10.45;;;2.95;;
317;SDS011;146;53.448;10.228;2024-01-15T07:22:32;9.03;;;2.87;;
317;SDS011;146;53.448;10.228;2024-01-15T07:25:22;9.53;;;2.93;;
317;SDS011;146;53.448;10.228;2024-01-15T07:28:17;5.90;;;2.47;;
317;SDS011;146;53.448;10.228;2024-01-15T07:31:10;6.20;;;2.70;;
317;SDS011;146;53.448;10.228;2024-01-15T07:33:57;4.03;;;1.98;;
317;SDS011;146;53.448;10.228;2024-01-15T07:36:47;6.13;;;2.50;;
317;SDS011;146;53.448;10.228;2024-01-15T07:39:35;10.43;;;3.10;;
317;SDS011;146;53.448;10.228;2024-01-15T07:42:22;7.43;;;2.60;;
317;SDS011;146;53.448;10.228;2024-01-15T07:45:09;5.83;;;2.40;;
317;SDS011;146;53.448;10.228;2024-01-15T07:47:58;12.60;;;3.80;;
317;SDS011;146;53.448;10.228;2024-01-15T07:50:46;4.45;;;3.00;;
317;SDS011;146;53.448;10.228;2024-01-15T07:53:33;8.02;;;4.45;;
317;SDS011;146;53.448;10.228;2024-01-15T07:56:22;6.28;;;3.05;;
317;SDS011;146;53.448;10.228;2024-01-15T07:59:13;9.83;;;2.50;;
317;SDS011;146;53.448;10.228;2024-01-15T08:02:03;8.30;;;2.73;;
317;SDS011;146;53.448;10.228;2024-01-15T08:05:01;4.57;;;2.17;;
317;SDS011;146;53.448;10.228;2024-01-15T08:07:52;5.03;;;2.70;;
317;SDS011;146;53.448;10.228;2024-01-15T08:10:41;8.20;;;2.20;;
317;SDS011;146;53.448;10.228;2024-01-15T08:13:28;10.83;;;1.93;;
317;SDS011;146;53.448;10.228;2024-01-15T08:16:18;4.00;;;1.80;;
317;SDS011;146;53.448;10.228;2024-01-15T08:19:06;4.90;;;2.37;;
317;SDS011;146;53.448;10.228;2024-01-15T08:21:56;5.57;;;1.73;;
317;SDS011;146;53.448;10.228;2024-01-15T08:24:44;8.60;;;2.80;;
317;SDS011;146;53.448;10.228;2024-01-15T08:27:34;4.60;;;2.03;;
317;SDS011;146;53.448;10.228;2024-01-15T08:30:25;9.00;;;2.35;;
317;SDS011;146;53.448;10.228;2024-01-15T08:33:22;3.38;;;1.70;;
317;SDS011;146;53.448;10.228;2024-01-15T08:36:21;5.13;;;2.40;;
317;SDS011;146;53.448;10.228;2024-01-15T08:39:20;2.50;;;1.80;;
317;SDS011;146;53.448;10.228;2024-01-15T08:42:11;8.67;;;3.23;;
317;SDS011;146;53.448;10.228;2024-01-15T08:44:58;4.93;;;2.27;;
317;SDS011;146;53.448;10.228;2024-01-15T08:47:46;7.60;;;2.27;;
317;SDS011;146;53.448;10.228;2024-01-15T08:50:33;4.22;;;2.40;;
317;SDS011;146;53.448;10.228;2024-01-15T08:53:22;4.97;;;2.57;;
317;SDS011;146;53.448;10.228;2024-01-15T08:56:18;4.03;;;2.10;;
317;SDS011;146;53.448;10.228;2024-01-15T08:59:05;2.63;;;1.77;;
317;SDS011;146;53.448;10.228;2024-01-15T09:01:56;9.87;;;2.57;;
317;SDS011;146;53.448;10.228;2024-01-15T09:04:44;1.80;;;1.50;;
317;SDS011;146;53.448;10.228;2024-01-15T09:07:39;2.67;;;1.70;;
317;SDS011;146;53.448;10.228;2024-01-15T09:10:29;8.10;;;1.80;;
317;SDS011;146;53.448;10.228;2024-01-15T09:13:28;2.00;;;1.50;;
317;SDS011;146;53.448;10.228;2024-01-15T09:16:24;3.03;;;1.40;;
317;SDS011;146;53.448;10.228;2024-01-15T09:19:20;2.92;;;1.80;;
317;SDS011;146;53.448;10.228;2024-01-15T09:22:07;3.97;;;1.80;;
317;SDS011;146;53.448;10.228;2024-01-15T09:24:59;1.67;;;1.20;;
317;SDS011;146;53.448;10.228;2024-01-15T09:31:38;5.05;;;1.80;;
317;SDS011;146;53.448;10.228;2024-01-15T09:34:27;1.50;;;1.10;;
317;SDS011;146;53.448;10.228;2024-01-15T09:37:14;3.25;;;1.55;;
317;SDS011;146;53.448;10.228;2024-01-15T09:40:06;3.50;;;1.90;;
317;SDS011;146;53.448;10.228;2024-01-15T09:42:58;4.35;;;1.42;;
317;SDS011;146;53.448;10.228;2024-01-15T09:45:52;8.20;;;1.98;;
317;SDS011;146;53.448;10.228;2024-01-15T09:48:59;8.87;;;1.90;;
317;SDS011;146;53.448;10.228;2024-01-15T09:51:57;3.20;;;1.90;;
317;SDS011;146;53.448;10.228;2024-01-15T09:54:45;3.90;;;1.20;;
317;SDS011;146;53.448;10.228;2024-01-15T09:57:32;3.10;;;1.60;;
317;SDS011;146;53.448;10.228;2024-01-15T10:00:23;4.03;;;1.87;;
317;SDS011;146;53.448;10.228;2024-01-15T10:03:10;3.40;;;1.43;;
317;SDS011;146;53.448;10.228;2024-01-15T10:06:01;4.63;;;1.87;;
317;SDS011;146;53.448;10.228;2024-01-15T10:08:54;6.00;;;1.50;;
317;SDS011;146;53.448;10.228;2024-01-15T10:11:48;3.40;;;1.40;;
317;SDS011;146;53.448;10.228;2024-01-15T10:14:48;3.80;;;1.60;;
317;SDS011;146;53.448;10.228;2024-01-15T10:17:44;1.87;;;1.17;;
317;SDS011;146;53.448;10.228;2024-01-15T10:20:35;3.60;;;1.97;;
317;SDS011;146;53.448;10.228;2024-01-15T10:23:30;2.60;;;1.80;;
317;SDS011;146;53.448;10.228;2024-01-15T10:26:24;5.80;;;1.77;;
317;SDS011;146;53.448;10.228;2024-01-15T10:29:26;7.10;;;1.93;;
317;SDS011;146;53.448;10.228;2024-01-15T10:32:20;3.50;;;1.80;;
317;SDS011;146;53.448;10.228;2024-01-15T10:35:25;2.75;;;1.48;;
317;SDS011;146;53.448;10.228;2024-01-15T10:38:32;5.97;;;1.70;;
317;SDS011;146;53.448;10.228;2024-01-15T10:41:22;7.65;;;2.13;;
317;SDS011;146;53.448;10.228;2024-01-15T10:44:12;3.35;;;1.90;;
317;SDS011;146;53.448;10.228;2024-01-15T10:47:08;4.40;;;2.35;;
317;SDS011;146;53.448;10.228;2024-01-15T10:49:57;4.78;;;4.38;;
317;SDS011;146;53.448;10.228;2024-01-15T10:52:50;3.20;;;2.90;;
317;SDS011;146;53.448;10.228;2024-01-15T10:55:40;3.35;;;2.25;;
317;SDS011;146;53.448;10.228;2024-01-15T10:58:28;2.42;;;2.22;;
317;SDS011;146;53.448;10.228;2024-01-15T11:01:20;5.60;;;2.10;;
317;SDS011;146;53.448;10.228;2024-01-15T11:04:17;2.70;;;2.50;;
317;SDS011;146;53.448;10.228;2024-01-15T11:07:08;2.13;;;1.40;;
317;SDS011;146;53.448;10.228;2024-01-15T11:10:02;4.75;;;1.30;;
317;SDS011;146;53.448;10.228;2024-01-15T11:12:51;1.08;;;0.75;;
317;SDS011;146;53.448;10.228;2024-01-15T11:21:53;1.33;;;0.90;;
317;SDS011;146;53.448;10.228;2024-01-15T11:24:41;1.95;;;0.88;;
317;SDS011;146;53.448;10.228;2024-01-15T11:27:42;2.20;;;1.00;;
317;SDS011;146;53.448;10.228;2024-01-15T11:30:34;1.88;;;1.30;;
317;SDS011;146;53.448;10.228;2024-01-15T11:39:53;1.60;;;1.50;;
317;SDS011;146;53.448;10.228;2024-01-15T11:42:44;3.00;;;2.17;;
317;SDS011;146;53.448;10.228;2024-01-15T11:45:31;2.45;;;1.98;;
317;SDS011;146;53.448;10.228;2024-01-15T11:48:20;2.78;;;1.45;;
317;SDS011;146;53.448;10.228;2024-01-15T11:51:11;2.13;;;1.92;;
317;SDS011;146;53.448;10.228;2024-01-15T11:54:01;4.47;;;4.18;;
317;SDS011;146;53.448;10.228;2024-01-15T11:56:54;4.35;;;2.30;;
317;SDS011;146;53.448;10.228;2024-01-15T11:59:43;3.72;;;3.30;;
317;SDS011;146;53.448;10.228;2024-01-15T12:02:30;1.83;;;1.73;;
317;SDS011;146;53.448;10.228;2024-01-15T12:05:22;1.80;;;1.70;;
317;SDS011;146;53.448;10.228;2024-01-15T12:08:12;1.90;;;1.80;;
317;SDS011;146;53.448;10.228;2024-01-15T12:11:06;1.88;;;1.77;;
317;SDS011;146;53.448;10.228;2024-01-15T12:14:18;2.10;;;2.00;;
317;SDS011;146;53.448;10.228;2024-01-15T12:17:08;1.73;;;1.60;;
317;SDS011;146;53.448;10.228;2024-01-15T12:20:01;1.80;;;1.50;;
317;SDS011;146;53.448;10.228;2024-01-15T12:22:59;1.55;;;1.45;;
317;SDS011;146;53.448;10.228;2024-01-15T12:25:48;1.65;;;1.55;;
317;SDS011;146;53.448;10.228;2024-01-15T12:28:36;1.80;;;1.70;;
317;SDS011;146;53.448;10.228;2024-01-15T12:31:24;2.10;;;2.00;;
317;SDS011;146;53.448;10.228;2024-01-15T12:34:12;1.65;;;1.40;;
317;SDS011;146;53.448;10.228;2024-01-15T12:36:59;1.70;;;1.58;;
317;SDS011;146;53.448;10.228;2024-01-15T12:39:48;1.63;;;1.53;;
317;SDS011;146;53.448;10.228;2024-01-15T12:42:39;3.17;;;1.90;;
317;SDS011;146;53.448;10.228;2024-01-15T12:45:37;2.42;;;2.22;;
317;SDS011;146;53.448;10.228;2024-01-15T12:48:25;3.63;;;2.45;;
317;SDS011;146;53.448;10.228;2024-01-15T12:51:12;3.22;;;2.92;;
317;SDS011;146;53.448;10.228;2024-01-15T12:53:59;3.22;;;2.97;;
317;SDS011;146;53.448;10.228;2024-01-15T12:56:48;4.00;;;3.60;;
317;SDS011;146;53.448;10.228;2024-01-15T12:59:35;3.78;;;3.38;;
317;SDS011;146;53.448;10.228;2024-01-15T13:02:22;4.82;;;4.30;;
317;SDS011;146;53.448;10.228;2024-01-15T13:05:10;4.20;;;3.90;;
317;SDS011;146;53.448;10.228;2024-01-15T13:08:00;4.90;;;4.07;;
317;SDS011;146;53.448;10.228;2024-01-15T13:10:48;4.30;;;3.90;;
317;SDS011;146;53.448;10.228;2024-01-15T13:13:38;3.40;;;3.10;;
317;SDS011;146;53.448;10.228;2024-01-15T13:16:25;2.88;;;2.67;;
317;SDS011;146;53.448;10.228;2024-01-15T13:19:14;2.78;;;2.58;;
317;SDS011;146;53.448;10.228;2024-01-15T13:22:01;3.33;;;3.03;;
317;SDS011;146;53.448;10.228;2024-01-15T13:24:52;2.33;;;2.22;;
317;SDS011;146;53.448;10.228;2024-01-15T13:27:42;2.38;;;2.17;;
317;SDS011;146;53.448;10.228;2024-01-15T13:30:31;1.88;;;1.77;;
317;SDS011;146;53.448;10.228;2024-01-15T13:33:18;2.60;;;2.40;;
317;SDS011;146;53.448;10.228;2024-01-15T13:36:05;3.88;;;2.17;;
317;SDS011;146;53.448;10.228;2024-01-15T13:44:53;3.42;;;3.17;;
317;SDS011;146;53.448;10.228;2024-01-15T13:47:48;5.82;;;3.10;;
317;SDS011;146;53.448;10.228;2024-01-15T13:50:38;3.42;;;3.17;;
317;SDS011;146;53.448;10.228;2024-01-15T13:53:29;4.03;;;3.63;;
317;SDS011;146;53.448;10.228;2024-01-15T13:56:19;4.25;;;3.83;;
317;SDS011;146;53.448;10.228;2024-01-15T13:59:09;3.85;;;3.28;;
317;SDS011;146;53.448;10.228;2024-01-15T14:02:02;4.13;;;3.17;;
317;SDS011;146;53.448;10.228;2024-01-15T14:04:51;3.38;;;3.10;;
317;SDS011;146;53.448;10.228;2024-01-15T14:07:45;3.10;;;2.90;;
317;SDS011;146;53.448;10.228;2024-01-15T14:10:35;2.88;;;2.67;;
317;SDS011;146;53.448;10.228;2024-01-15T14:13:28;3.30;;;3.10;;
317;SDS011;146;53.448;10.228;2024-01-15T14:16:15;3.75;;;3.45;;
317;SDS011;146;53.448;10.228;2024-01-15T14:19:02;4.35;;;3.55;;
317;SDS011;146;53.448;10.228;2024-01-15T14:21:53;5.05;;;4.35;;
317;SDS011;146;53.448;10.228;2024-01-15T14:24:40;3.95;;;3.65;;
317;SDS011;146;53.448;10.228;2024-01-15T14:27:31;5.00;;;4.50;;
317;SDS011;146;53.448;10.228;2024-01-15T14:30:21;4.30;;;4.00;;
317;SDS011;146;53.448;10.228;2024-01-15T14:33:11;5.40;;;4.20;;
317;SDS011;146;53.448;10.228;2024-01-15T14:35:58;6.17;;;4.60;;
317;SDS011;146;53.448;10.228;2024-01-15T14:38:49;6.50;;;4.93;;
317;SDS011;146;53.448;10.228;2024-01-15T14:41:54;6.75;;;4.55;;
317;SDS011;146;53.448;10.228;2024-01-15T14:44:45;5.05;;;4.65;;
317;SDS011;146;53.448;10.228;2024-01-15T14:47:32;8.75;;;4.93;;
317;SDS011;146;53.448;10.228;2024-01-15T14:50:22;5.50;;;5.00;;
317;SDS011;146;53.448;10.228;2024-01-15T14:53:09;5.85;;;5.25;;
317;SDS011;146;53.448;10.228;2024-01-15T14:56:08;5.45;;;4.95;;
317;SDS011;146;53.448;10.228;2024-01-15T14:58:55;6.72;;;5.60;;
317;SDS011;146;53.448;10.228;2024-01-15T15:01:51;5.95;;;5.35;;
317;SDS011;146;53.448;10.228;2024-01-15T15:04:42;6.25;;;5.75;;
317;SDS011;146;53.448;10.228;2024-01-15T15:07:33;6.30;;;5.70;;
317;SDS011;146;53.448;10.228;2024-01-15T15:10:28;5.00;;;4.55;;
317;SDS011;146;53.448;10.228;2024-01-15T15:16:48;4.90;;;4.50;;
317;SDS011;146;53.448;10.228;2024-01-15T15:19:48;4.82;;;4.43;;
317;SDS011;146;53.448;10.228;2024-01-15T15:22:38;5.15;;;4.85;;
317;SDS011;146;53.448;10.228;2024-01-15T15:25:31;5.85;;;4.65;;
317;SDS011;146;53.448;10.228;2024-01-15T15:28:24;4.57;;;4.18;;
317;SDS011;146;53.448;10.228;2024-01-15T15:31:20;4.40;;;4.00;;
317;SDS011;146;53.448;10.228;2024-01-15T15:34:09;4.50;;;4.15;;
317;SDS011;146;53.448;10.228;2024-01-15T15:36:56;5.28;;;4.78;;
317;SDS011;146;53.448;10.228;2024-01-15T15:39:46;4.68;;;4.28;;
317;SDS011;146;53.448;10.228;2024-01-15T15:42:33;6.25;;;4.10;;
317;SDS011;146;53.448;10.228;2024-01-15T15:45:20;4.50;;;4.20;;
317;SDS011;146;53.448;10.228;2024-01-15T15:48:17;5.35;;;4.90;;
317;SDS011;146;53.448;10.228;2024-01-15T15:51:20;6.07;;;5.55;;
317;SDS011;146;53.448;10.228;2024-01-15T15:54:10;6.82;;;6.10;;
317;SDS011;146;53.448;10.228;2024-01-15T15:57:10;6.95;;;6.25;;
317;SDS011;146;53.448;10.228;2024-01-15T16:00:00;6.75;;;6.15;;
317;SDS011;146;53.448;10.228;2024-01-15T16:13:37;9.05;;;7.95;;
317;SDS011;146;53.448;10.228;2024-01-15T16:16:24;14.38;;;8.68;;
317;SDS011;146;53.448;10.228;2024-01-15T16:19:11;10.40;;;9.40;;
317;SDS011;146;53.448;10.228;2024-01-15T16:22:01;9.10;;;7.95;;
317;SDS011;146;53.448;10.228;2024-01-15T16:24:54;7.88;;;7.18;;
317;SDS011;146;53.448;10.228;2024-01-15T16:27:41;10.10;;;7.45;;
317;SDS011;146;53.448;10.228;2024-01-15T16:30:36;7.70;;;7.00;;
317;SDS011;146;53.448;10.228;2024-01-15T16:33:29;7.32;;;6.63;;
317;SDS011;146;53.448;10.228;2024-01-15T16:36:19;7.97;;;7.35;;
317;SDS011;146;53.448;10.228;2024-01-15T16:39:19;6.90;;;6.40;;
317;SDS011;146;53.448;10.228;2024-01-15T16:42:06;7.82;;;7.15;;
317;SDS011;146;53.448;10.228;2024-01-15T16:44:57;7.55;;;6.85;;
317;SDS011;146;53.448;10.228;2024-01-15T16:47:48;8.05;;;7.45;;
317;SDS011;146;53.448;10.228;2024-01-15T16:50:35;9.32;;;8.43;;
317;SDS011;146;53.448;10.228;2024-01-15T16:53:22;9.90;;;9.00;;
317;SDS011;146;53.448;10.228;2024-01-15T16:56:10;9.07;;;8.00;;
317;SDS011;146;53.448;10.228;2024-01-15T16:58:57;9.70;;;8.85;;
317;SDS011;146;53.448;10.228;2024-01-15T17:01:44;9.68;;;8.68;;
317;SDS011;146;53.448;10.228;2024-01-15T17:04:34;9.30;;;8.50;;
317;SDS011;146;53.448;10.228;2024-01-15T17:07:35;10.35;;;9.25;;
317;SDS011;146;53.448;10.228;2024-01-15T17:10:36;9.93;;;8.85;;
317;SDS011;146;53.448;10.228;2024-01-15T17:13:32;11.73;;;10.57;;
317;SDS011;146;53.448;10.228;2024-01-15T17:16:42;12.10;;;10.75;;
317;SDS011;146;53.448;10.228;2024-01-15T17:19:34;13.70;;;10.68;;
317;SDS011;146;53.448;10.228;2024-01-15T17:22:24;11.88;;;10.68;;
317;SDS011;146;53.448;10.228;2024-01-15T17:25:11;12.60;;;11.30;;
317;SDS011;146;53.448;10.228;2024-01-15T17:27:58;11.57;;;10.48;;
317;SDS011;146;53.448;10.228;2024-01-15T17:30:46;13.30;;;12.00;;
317;SDS011;146;53.448;10.228;2024-01-15T17:33:34;14.35;;;12.85;;
317;SDS011;146;53.448;10.228;2024-01-15T17:36:24;13.40;;;12.00;;
317;SDS011;146;53.448;10.228;2024-01-15T17:39:11;12.73;;;11.38;;
317;SDS011;146;53.448;10.228;2024-01-15T17:41:59;10.77;;;9.70;;
317;SDS011;146;53.448;10.228;2024-01-15T17:44:48;10.95;;;9.88;;
317;SDS011;146;53.448;10.228;2024-01-15T17:47:37;10.80;;;9.65;;
317;SDS011;146;53.448;10.228;2024-01-15T17:50:30;10.07;;;9.07;;
317;SDS011;146;53.448;10.228;2024-01-15T17:53:25;9.80;;;8.80;;
317;SDS011;146;53.448;10.228;2024-01-15T17:56:12;10.25;;;8.88;;
317;SDS011;146;53.448;10.228;2024-01-15T17:59:03;10.30;;;8.45;;
317;SDS011;146;53.448;10.228;2024-01-15T18:01:51;11.52;;;10.40;;
317;SDS011;146;53.448;10.228;2024-01-15T18:04:41;11.45;;;10.43;;
317;SDS011;146;53.448;10.228;2024-01-15T18:07:28;10.90;;;9.90;;
317;SDS011;146;53.448;10.228;2024-01-15T18:10:19;11.98;;;10.77;;
317;SDS011;146;53.448;10.228;2024-01-15T18:13:09;12.02;;;10.35;;
317;SDS011;146;53.448;10.228;2024-01-15T18:15:56;11.77;;;10.57;;
317;SDS011;146;53.448;10.228;2024-01-15T18:18:43;11.43;;;10.32;;
317;SDS011;146;53.448;10.228;2024-01-15T18:21:38;11.90;;;10.63;;
317;SDS011;146;53.448;10.228;2024-01-15T18:24:32;13.15;;;11.80;;
317;SDS011;146;53.448;10.228;2024-01-15T18:27:25;11.60;;;10.50;;
317;SDS011;146;53.448;10.228;2024-01-15T18:30:32;11.35;;;10.10;;
317;SDS011;146;53.448;10.228;2024-01-15T18:33:44;12.47;;;11.27;;
317;SDS011;146;53.448;10.228;2024-01-15T18:36:33;12.48;;;11.27;;
317;SDS011;146;53.448;10.228;2024-01-15T18:39:31;18.75;;;16.85;;
317;SDS011;146;53.448;10.228;2024-01-15T18:42:24;19.45;;;16.27;;